sensor_id;sensor_type;location;lat;lon;timestamp;pressure;altitude;pressure_sealevel;temperature;humidity
8061;BME280;4073;42.626;25.386;2024-02-28T00:02:23;97699.97;;;6.67;100.00
8061;BME280;4073;42.626;25.386;2024-02-28T00:04:49;97700.66;;;6.62;100.00
8061;BME280;4073;42.626;25.386;2024-02-28T00:07:14;97696.31;;;6.56;100.00
8061;BME280;4073;42.626;25.386;2024-02-28T00:09:40;97695.97;;;6.30;100.00
8061;BME280;4073;42.626;25.386;2024-02-28T00:12:05;97690.78;;;6.35;100.00
8061;BME280;4073;42.626;25.386;2024-02-28T00:14:31;97704.75;;;6.30;100.00
8061;BME280;4073;42.626;25.386;2024-02-28T00:16:56;97700.94;;;6.15;100.00
8061;BME280;4073;42.626;25.386;2024-02-28T00:19:22;97706.13;;;6.21;100.00
8061;BME280;4073;42.626;25.386;2024-02-28T00:21:50;97703.69;;;6.20;100.00
8061;BME280;4073;42.626;25.386;2024-02-28T00:24:15;97700.03;;;6.21;100.00
8061;BME280;4073;42.626;25.386;2024-02-28T00:26:42;97689.53;;;5.91;100.00
8061;BME280;4073;42.626;25.386;2024-02-28T00:29:08;97698.97;;;6.10;100.00
8061;BME280;4073;42.626;25.386;2024-02-28T00:31:33;97691.16;;;6.15;100.00
8061;BME280;4073;42.626;25.386;2024-02-28T00:33:59;97695.97;;;6.18;100.00
8061;BME280;4073;42.626;25.386;2024-02-28T00:36:24;97700.34;;;6.24;100.00
8061;BME280;4073;42.626;25.386;2024-02-28T00:38:50;97695.63;;;6.26;100.00
8061;BME280;4073;42.626;25.386;2024-02-28T00:41:15;97694.59;;;6.27;100.00
8061;BME280;4073;42.626;25.386;2024-02-28T00:43:41;97689.63;;;6.31;100.00
8061;BME280;4073;42.626;25.386;2024-02-28T00:46:06;97694.72;;;6.32;100.00
8061;BME280;4073;42.626;25.386;2024-02-28T00:48:37;97704.66;;;6.25;100.00
8061;BME280;4073;42.626;25.386;2024-02-28T00:51:02;97692.28;;;6.19;100.00
8061;BME280;4073;42.626;25.386;2024-02-28T00:53:28;97697.69;;;6.13;100.00
8061;BME280;4073;42.626;25.386;2024-02-28T00:55:54;97702.44;;;6.11;100.00
8061;BME280;4073;42.626;25.386;2024-02-28T00:58:20;97683.50;;;5.96;100.00
8061;BME280;4073;42.626;25.386;2024-02-28T01:00:49;97705.56;;;6.08;100.00
8061;BME280;4073;42.626;25.386;2024-02-28T01:03:15;97709.13;;;6.02;100.00
8061;BME280;4073;42.626;25.386;2024-02-28T01:05:41;97711.91;;;5.95;100.00
8061;BME280;4073;42.626;25.386;2024-02-28T01:08:07;97711.19;;;5.88;100.00
8061;BME280;4073;42.626;25.386;2024-02-28T01:10:33;97705.97;;;5.82;100.00
8061;BME280;4073;42.626;25.386;2024-02-28T01:12:59;97699.25;;;5.68;100.00
8061;BME280;4073;42.626;25.386;2024-02-28T01:15:25;97693.59;;;5.64;100.00
8061;BME280;4073;42.626;25.386;2024-02-28T01:17:50;97696.56;;;5.56;100.00
8061;BME280;4073;42.626;25.386;2024-02-28T01:20:16;97701.31;;;5.54;100.00
8061;BME280;4073;42.626;25.386;2024-02-28T01:22:41;97693.41;;;5.47;100.00
8061;BME280;4073;42.626;25.386;2024-02-28T01:25:07;97701.97;;;5.50;100.00
8061;BME280;4073;42.626;25.386;2024-02-28T01:27:33;97693.09;;;5.44;100.00
8061;BME280;4073;42.626;25.386;2024-02-28T01:30:00;97693.53;;;5.41;100.00
8061;BME280;4073;42.626;25.386;2024-02-28T01:32:26;97692.84;;;5.46;100.00
8061;BME280;4073;42.626;25.386;2024-02-28T01:34:51;97706.63;;;5.36;100.00
8061;BME280;4073;42.626;25.386;2024-02-28T01:37:17;97702.50;;;5.40;100.00
8061;BME280;4073;42.626;25.386;2024-02-28T01:39:42;97697.69;;;5.37;100.00
8061;BME280;4073;42.626;25.386;2024-02-28T01:42:08;97696.63;;;5.38;100.00
8061;BME280;4073;42.626;25.386;2024-02-28T01:44:40;97694.97;;;5.25;100.00
8061;BME280;4073;42.626;25.386;2024-02-28T01:47:09;97691.06;;;5.28;100.00
8061;BME280;4073;42.626;25.386;2024-02-28T01:49:34;97695.91;;;5.31;100.00
8061;BME280;4073;42.626;25.386;2024-02-28T01:52:00;97693.03;;;5.32;100.00
8061;BME280;4073;42.626;25.386;2024-02-28T01:54:27;97691.66;;;5.30;100.00
8061;BME280;4073;42.626;25.386;2024-02-28T01:56:55;97689.91;;;5.24;100.00
8061;BME280;4073;42.626;25.386;2024-02-28T01:59:22;97681.69;;;5.14;100.00
8061;BME280;4073;42.626;25.386;2024-02-28T02:01:48;97688.25;;;5.23;100.00
8061;BME280;4073;42.626;25.386;2024-02-28T02:04:13;97695.78;;;5.26;100.00
8061;BME280;4073;42.626;25.386;2024-02-28T02:06:42;97693.56;;;5.23;100.00
8061;BME280;4073;42.626;25.386;2024-02-28T02:09:08;97693.38;;;5.36;100.00
8061;BME280;4073;42.626;25.386;2024-02-28T02:11:34;97694.78;;;5.38;100.00
8061;BME280;4073;42.626;25.386;2024-02-28T02:14:00;97701.59;;;5.46;100.00
8061;BME280;4073;42.626;25.386;2024-02-28T02:16:25;97698.88;;;5.53;100.00
8061;BME280;4073;42.626;25.386;2024-02-28T02:18:51;97703.25;;;5.59;100.00
8061;BME280;4073;42.626;25.386;2024-02-28T02:21:18;97684.69;;;5.59;100.00
8061;BME280;4073;42.626;25.386;2024-02-28T02:23:45;97696.00;;;5.66;100.00
8061;BME280;4073;42.626;25.386;2024-02-28T02:26:10;97707.19;;;5.68;100.00
8061;BME280;4073;42.626;25.386;2024-02-28T02:28:36;97687.91;;;5.61;100.00
8061;BME280;4073;42.626;25.386;2024-02-28T02:31:02;97682.25;;;5.57;100.00
8061;BME280;4073;42.626;25.386;2024-02-28T02:33:27;97696.72;;;5.73;100.00
8061;BME280;4073;42.626;25.386;2024-02-28T02:35:53;97701.56;;;5.76;100.00
8061;BME280;4073;42.626;25.386;2024-02-28T02:38:19;97702.03;;;5.73;100.00
8061;BME280;4073;42.626;25.386;2024-02-28T02:40:51;97702.38;;;5.76;100.00
8061;BME280;4073;42.626;25.386;2024-02-28T02:43:17;97704.16;;;5.82;100.00
8061;BME280;4073;42.626;25.386;2024-02-28T02:45:43;97704.34;;;5.81;100.00
8061;BME280;4073;42.626;25.386;2024-02-28T02:48:09;97685.38;;;5.66;100.00
8061;BME280;4073;42.626;25.386;2024-02-28T02:50:35;97712.75;;;5.78;100.00
8061;BME280;4073;42.626;25.386;2024-02-28T02:53:01;97709.06;;;5.79;100.00
8061;BME280;4073;42.626;25.386;2024-02-28T02:55:26;97704.91;;;5.71;100.00
8061;BME280;4073;42.626;25.386;2024-02-28T02:57:52;97719.91;;;5.77;100.00
8061;BME280;4073;42.626;25.386;2024-02-28T03:00:17;97719.34;;;5.75;100.00
8061;BME280;4073;42.626;25.386;2024-02-28T03:02:43;97718.97;;;5.72;100.00
8061;BME280;4073;42.626;25.386;2024-02-28T03:05:09;97713.78;;;5.65;100.00
8061;BME280;4073;42.626;25.386;2024-02-28T03:07:35;97718.38;;;5.58;100.00
8061;BME280;4073;42.626;25.386;2024-02-28T03:10:00;97713.97;;;5.52;100.00
8061;BME280;4073;42.626;25.386;2024-02-28T03:12:27;97713.84;;;5.47;100.00
8061;BME280;4073;42.626;25.386;2024-02-28T03:14:52;97713.47;;;5.43;100.00
8061;BME280;4073;42.626;25.386;2024-02-28T03:17:18;97715.75;;;5.40;100.00
8061;BME280;4073;42.626;25.386;2024-02-28T03:19:43;97708.50;;;5.35;100.00
8061;BME280;4073;42.626;25.386;2024-02-28T03:22:09;97724.19;;;5.37;100.00
8061;BME280;4073;42.626;25.386;2024-02-28T03:24:34;97718.50;;;5.33;100.00
8061;BME280;4073;42.626;25.386;2024-02-28T03:27:03;97726.13;;;5.30;100.00
8061;BME280;4073;42.626;25.386;2024-02-28T03:29:29;97725.75;;;5.26;100.00
8061;BME280;4073;42.626;25.386;2024-02-28T03:31:55;97724.59;;;5.22;100.00
8061;BME280;4073;42.626;25.386;2024-02-28T03:34:20;97734.25;;;5.17;100.00
8061;BME280;4073;42.626;25.386;2024-02-28T03:36:46;97736.75;;;5.12;100.00
8061;BME280;4073;42.626;25.386;2024-02-28T03:39:12;97734.75;;;5.07;100.00
8061;BME280;4073;42.626;25.386;2024-02-28T03:41:38;97735.72;;;4.95;100.00
8061;BME280;4073;42.626;25.386;2024-02-28T03:44:04;97742.72;;;4.89;100.00
8061;BME280;4073;42.626;25.386;2024-02-28T03:46:29;97738.19;;;4.78;100.00
8061;BME280;4073;42.626;25.386;2024-02-28T03:48:55;97739.44;;;4.76;100.00
8061;BME280;4073;42.626;25.386;2024-02-28T03:51:20;97740.44;;;4.75;100.00
8061;BME280;4073;42.626;25.386;2024-02-28T03:53:46;97739.44;;;4.76;100.00
8061;BME280;4073;42.626;25.386;2024-02-28T03:56:11;97747.94;;;4.78;100.00
8061;BME280;4073;42.626;25.386;2024-02-28T03:58:37;97744.88;;;4.81;100.00
8061;BME280;4073;42.626;25.386;2024-02-28T04:01:03;97730.66;;;4.75;100.00
8061;BME280;4073;42.626;25.386;2024-02-28T04:03:29;97734.44;;;4.86;100.00
8061;BME280;4073;42.626;25.386;2024-02-28T04:05:54;97720.44;;;4.79;100.00
8061;BME280;4073;42.626;25.386;2024-02-28T04:08:20;97743.31;;;4.91;100.00
8061;BME280;4073;42.626;25.386;2024-02-28T04:10:45;97743.91;;;4.93;100.00
8061;BME280;4073;42.626;25.386;2024-02-28T04:13:11;97744.28;;;4.97;100.00
8061;BME280;4073;42.626;25.386;2024-02-28T04:15:36;97755.66;;;4.97;100.00
8061;BME280;4073;42.626;25.386;2024-02-28T04:18:03;97748.75;;;4.96;100.00
8061;BME280;4073;42.626;25.386;2024-02-28T04:20:29;97750.25;;;4.92;100.00
8061;BME280;4073;42.626;25.386;2024-02-28T04:22:55;97752.38;;;4.84;100.00
8061;BME280;4073;42.626;25.386;2024-02-28T04:25:20;97748.13;;;4.83;100.00
8061;BME280;4073;42.626;25.386;2024-02-28T04:27:46;97742.81;;;4.83;100.00
8061;BME280;4073;42.626;25.386;2024-02-28T04:30:12;97743.91;;;4.75;100.00
8061;BME280;4073;42.626;25.386;2024-02-28T04:32:38;97746.41;;;4.70;100.00
8061;BME280;4073;42.626;25.386;2024-02-28T04:35:04;97743.22;;;4.62;100.00
8061;BME280;4073;42.626;25.386;2024-02-28T04:37:29;97736.75;;;4.58;100.00
8061;BME280;4073;42.626;25.386;2024-02-28T04:39:55;97748.59;;;4.55;100.00
8061;BME280;4073;42.626;25.386;2024-02-28T04:42:20;97739.41;;;4.58;100.00
8061;BME280;4073;42.626;25.386;2024-02-28T04:44:46;97740.00;;;4.60;100.00
8061;BME280;4073;42.626;25.386;2024-02-28T04:47:11;97746.47;;;4.46;100.00
8061;BME280;4073;42.626;25.386;2024-02-28T04:49:37;97751.34;;;4.49;100.00
8061;BME280;4073;42.626;25.386;2024-02-28T04:52:04;97731.69;;;4.38;100.00
8061;BME280;4073;42.626;25.386;2024-02-28T04:54:30;97749.34;;;4.44;100.00
8061;BME280;4073;42.626;25.386;2024-02-28T04:56:55;97742.78;;;4.47;100.00
8061;BME280;4073;42.626;25.386;2024-02-28T04:59:21;97748.09;;;4.47;100.00
8061;BME280;4073;42.626;25.386;2024-02-28T05:01:47;97750.13;;;4.45;100.00
8061;BME280;4073;42.626;25.386;2024-02-28T05:04:13;97738.78;;;4.38;100.00
8061;BME280;4073;42.626;25.386;2024-02-28T05:06:39;97745.31;;;4.42;100.00
8061;BME280;4073;42.626;25.386;2024-02-28T05:09:05;97742.44;;;4.43;100.00
8061;BME280;4073;42.626;25.386;2024-02-28T05:11:30;97749.78;;;4.41;100.00
8061;BME280;4073;42.626;25.386;2024-02-28T05:13:56;97754.69;;;4.38;100.00
8061;BME280;4073;42.626;25.386;2024-02-28T05:16:21;97754.25;;;4.41;100.00
8061;BME280;4073;42.626;25.386;2024-02-28T05:18:47;97754.84;;;4.43;100.00
8061;BME280;4073;42.626;25.386;2024-02-28T05:21:13;97754.63;;;4.44;100.00
8061;BME280;4073;42.626;25.386;2024-02-28T05:23:41;97756.19;;;4.52;100.00
8061;BME280;4073;42.626;25.386;2024-02-28T05:26:07;97761.03;;;4.55;100.00
8061;BME280;4073;42.626;25.386;2024-02-28T05:28:33;97760.59;;;4.58;100.00
8061;BME280;4073;42.626;25.386;2024-02-28T05:31:02;97760.53;;;4.64;100.00
8061;BME280;4073;42.626;25.386;2024-02-28T05:33:44;97758.84;;;4.70;100.00
8061;BME280;4073;42.626;25.386;2024-02-28T05:36:10;97767.75;;;4.75;100.00
8061;BME280;4073;42.626;25.386;2024-02-28T05:38:35;97757.75;;;4.77;100.00
8061;BME280;4073;42.626;25.386;2024-02-28T05:41:00;97760.16;;;4.79;100.00
8061;BME280;4073;42.626;25.386;2024-02-28T05:43:26;97761.19;;;4.78;100.00
8061;BME280;4073;42.626;25.386;2024-02-28T05:45:52;97763.63;;;4.79;100.00
8061;BME280;4073;42.626;25.386;2024-02-28T05:48:18;97764.44;;;4.80;100.00
8061;BME280;4073;42.626;25.386;2024-02-28T05:50:44;97769.66;;;4.86;100.00
8061;BME280;4073;42.626;25.386;2024-02-28T05:53:10;97769.81;;;4.91;100.00
8061;BME280;4073;42.626;25.386;2024-02-28T05:55:35;97769.72;;;4.98;100.00
8061;BME280;4073;42.626;25.386;2024-02-28T05:58:01;97773.00;;;5.00;100.00
8061;BME280;4073;42.626;25.386;2024-02-28T06:00:27;97777.84;;;5.03;100.00
8061;BME280;4073;42.626;25.386;2024-02-28T06:02:53;97784.38;;;5.00;100.00
8061;BME280;4073;42.626;25.386;2024-02-28T06:05:19;97782.91;;;5.04;100.00
8061;BME280;4073;42.626;25.386;2024-02-28T06:07:44;97780.78;;;5.13;100.00
8061;BME280;4073;42.626;25.386;2024-02-28T06:10:10;97786.34;;;5.23;100.00
8061;BME280;4073;42.626;25.386;2024-02-28T06:12:36;97787.44;;;5.33;100.00
8061;BME280;4073;42.626;25.386;2024-02-28T06:15:02;97781.78;;;5.30;100.00
8061;BME280;4073;42.626;25.386;2024-02-28T06:17:27;97783.53;;;5.36;100.00
8061;BME280;4073;42.626;25.386;2024-02-28T06:19:53;97794.41;;;5.64;100.00
8061;BME280;4073;42.626;25.386;2024-02-28T06:22:18;97805.16;;;5.81;100.00
8061;BME280;4073;42.626;25.386;2024-02-28T06:24:45;97802.72;;;6.09;100.00
8061;BME280;4073;42.626;25.386;2024-02-28T06:27:11;97811.22;;;6.40;100.00
8061;BME280;4073;42.626;25.386;2024-02-28T06:29:39;97812.47;;;6.72;100.00
8061;BME280;4073;42.626;25.386;2024-02-28T06:32:05;97810.97;;;6.99;100.00
8061;BME280;4073;42.626;25.386;2024-02-28T06:34:30;97816.94;;;7.29;100.00
8061;BME280;4073;42.626;25.386;2024-02-28T06:36:56;97820.44;;;7.58;100.00
8061;BME280;4073;42.626;25.386;2024-02-28T06:39:22;97812.13;;;7.82;100.00
8061;BME280;4073;42.626;25.386;2024-02-28T06:41:47;97818.38;;;8.04;100.00
8061;BME280;4073;42.626;25.386;2024-02-28T06:44:15;97812.94;;;8.28;100.00
8061;BME280;4073;42.626;25.386;2024-02-28T06:46:41;97818.94;;;8.35;100.00
8061;BME280;4073;42.626;25.386;2024-02-28T06:49:07;97817.63;;;8.37;100.00
8061;BME280;4073;42.626;25.386;2024-02-28T06:51:32;97816.81;;;8.70;100.00
8061;BME280;4073;42.626;25.386;2024-02-28T06:53:58;97833.09;;;9.06;100.00
8061;BME280;4073;42.626;25.386;2024-02-28T06:56:23;97831.63;;;9.37;100.00
8061;BME280;4073;42.626;25.386;2024-02-28T06:58:49;97832.06;;;9.72;100.00
8061;BME280;4073;42.626;25.386;2024-02-28T07:01:14;97839.34;;;10.03;100.00
8061;BME280;4073;42.626;25.386;2024-02-28T07:03:40;97839.25;;;10.14;100.00
8061;BME280;4073;42.626;25.386;2024-02-28T07:06:06;97847.31;;;9.98;100.00
8061;BME280;4073;42.626;25.386;2024-02-28T07:08:32;97852.91;;;9.75;100.00
8061;BME280;4073;42.626;25.386;2024-02-28T07:10:57;97852.38;;;9.51;100.00
8061;BME280;4073;42.626;25.386;2024-02-28T07:13:23;97860.00;;;9.43;100.00
8061;BME280;4073;42.626;25.386;2024-02-28T07:15:49;97855.72;;;9.42;100.00
8061;BME280;4073;42.626;25.386;2024-02-28T07:18:14;97857.50;;;9.58;100.00
8061;BME280;4073;42.626;25.386;2024-02-28T07:20:40;97857.75;;;9.78;100.00
8061;BME280;4073;42.626;25.386;2024-02-28T07:23:06;97863.53;;;10.13;100.00
8061;BME280;4073;42.626;25.386;2024-02-28T07:25:31;97867.13;;;10.55;100.00
8061;BME280;4073;42.626;25.386;2024-02-28T07:27:58;97856.25;;;10.98;100.00
8061;BME280;4073;42.626;25.386;2024-02-28T07:30:28;97850.06;;;11.91;100.00
8061;BME280;4073;42.626;25.386;2024-02-28T07:32:53;97863.31;;;12.72;100.00
8061;BME280;4073;42.626;25.386;2024-02-28T07:35:20;97867.19;;;13.70;100.00
8061;BME280;4073;42.626;25.386;2024-02-28T07:37:46;97863.69;;;14.72;98.63
8061;BME280;4073;42.626;25.386;2024-02-28T07:40:12;97867.22;;;15.29;94.62
8061;BME280;4073;42.626;25.386;2024-02-28T07:42:38;97869.19;;;15.95;89.39
8061;BME280;4073;42.626;25.386;2024-02-28T07:45:04;97870.97;;;16.46;86.02
8061;BME280;4073;42.626;25.386;2024-02-28T07:47:29;97871.69;;;16.70;84.17
8061;BME280;4073;42.626;25.386;2024-02-28T07:49:55;97873.91;;;17.14;81.29
8061;BME280;4073;42.626;25.386;2024-02-28T07:52:20;97872.53;;;17.48;78.95
8061;BME280;4073;42.626;25.386;2024-02-28T07:54:46;97876.66;;;17.73;77.62
8061;BME280;4073;42.626;25.386;2024-02-28T07:57:11;97879.06;;;17.88;76.91
8061;BME280;4073;42.626;25.386;2024-02-28T07:59:41;97872.31;;;18.13;75.99
8061;BME280;4073;42.626;25.386;2024-02-28T08:02:07;97855.56;;;18.24;76.21
8061;BME280;4073;42.626;25.386;2024-02-28T08:04:33;97873.34;;;18.66;73.75
8061;BME280;4073;42.626;25.386;2024-02-28T08:06:59;97863.44;;;19.05;71.29
8061;BME280;4073;42.626;25.386;2024-02-28T08:09:25;97867.44;;;19.08;71.41
8061;BME280;4073;42.626;25.386;2024-02-28T08:11:51;97859.03;;;19.70;67.23
8061;BME280;4073;42.626;25.386;2024-02-28T08:14:16;97864.38;;;20.01;66.32
8061;BME280;4073;42.626;25.386;2024-02-28T08:16:42;97852.53;;;20.45;64.25
8061;BME280;4073;42.626;25.386;2024-02-28T08:19:09;97850.16;;;21.57;59.30
8061;BME280;4073;42.626;25.386;2024-02-28T08:21:35;97853.47;;;21.17;59.53
8061;BME280;4073;42.626;25.386;2024-02-28T08:24:00;97850.69;;;22.17;56.53
8061;BME280;4073;42.626;25.386;2024-02-28T08:26:30;97846.28;;;22.33;54.81
8061;BME280;4073;42.626;25.386;2024-02-28T08:28:56;97851.47;;;22.88;52.22
8061;BME280;4073;42.626;25.386;2024-02-28T08:31:21;97843.56;;;23.84;49.34
8061;BME280;4073;42.626;25.386;2024-02-28T08:33:47;97845.72;;;23.91;46.96
8061;BME280;4073;42.626;25.386;2024-02-28T08:36:13;97835.59;;;24.03;46.81
8061;BME280;4073;42.626;25.386;2024-02-28T08:38:40;97845.97;;;24.34;45.43
8061;BME280;4073;42.626;25.386;2024-02-28T08:41:07;97841.47;;;24.93;43.87
8061;BME280;4073;42.626;25.386;2024-02-28T08:43:41;97843.38;;;24.77;44.60
8061;BME280;4073;42.626;25.386;2024-02-28T08:46:07;97845.53;;;25.11;42.99
8061;BME280;4073;42.626;25.386;2024-02-28T08:48:33;97844.13;;;24.89;43.52
8061;BME280;4073;42.626;25.386;2024-02-28T08:50:59;97848.13;;;24.28;44.23
8061;BME280;4073;42.626;25.386;2024-02-28T08:53:24;97853.53;;;22.91;48.37
8061;BME280;4073;42.626;25.386;2024-02-28T08:55:50;97843.50;;;22.62;49.46
8061;BME280;4073;42.626;25.386;2024-02-28T08:58:16;97848.56;;;22.23;51.59
8061;BME280;4073;42.626;25.386;2024-02-28T09:00:41;97845.53;;;22.53;50.05
8061;BME280;4073;42.626;25.386;2024-02-28T09:03:07;97841.59;;;22.84;49.63
8061;BME280;4073;42.626;25.386;2024-02-28T09:05:32;97844.91;;;23.22;48.33
8061;BME280;4073;42.626;25.386;2024-02-28T09:07:58;97840.69;;;23.45;47.05
8061;BME280;4073;42.626;25.386;2024-02-28T09:10:24;97847.06;;;23.85;46.35
8061;BME280;4073;42.626;25.386;2024-02-28T09:12:52;97842.63;;;23.68;46.31
8061;BME280;4073;42.626;25.386;2024-02-28T09:15:19;97837.53;;;23.91;46.13
8061;BME280;4073;42.626;25.386;2024-02-28T09:17:44;97836.59;;;23.18;48.31
8061;BME280;4073;42.626;25.386;2024-02-28T09:20:10;97840.31;;;23.34;48.47
8061;BME280;4073;42.626;25.386;2024-02-28T09:22:38;97831.84;;;23.72;47.42
8061;BME280;4073;42.626;25.386;2024-02-28T09:25:04;97830.47;;;23.90;46.90
8061;BME280;4073;42.626;25.386;2024-02-28T09:27:32;97834.88;;;23.46;47.48
8061;BME280;4073;42.626;25.386;2024-02-28T09:29:58;97840.69;;;23.57;47.94
8061;BME280;4073;42.626;25.386;2024-02-28T09:32:23;97844.13;;;24.38;45.93
8061;BME280;4073;42.626;25.386;2024-02-28T09:34:49;97839.72;;;24.09;46.04
8061;BME280;4073;42.626;25.386;2024-02-28T09:37:14;97842.81;;;23.96;46.57
8061;BME280;4073;42.626;25.386;2024-02-28T09:39:42;97841.75;;;24.00;47.04
8061;BME280;4073;42.626;25.386;2024-02-28T09:42:07;97832.63;;;24.20;45.90
8061;BME280;4073;42.626;25.386;2024-02-28T09:44:36;97842.28;;;23.70;47.36
8061;BME280;4073;42.626;25.386;2024-02-28T09:47:02;97848.59;;;23.94;46.68
8061;BME280;4073;42.626;25.386;2024-02-28T09:49:28;97841.72;;;23.76;46.44
8061;BME280;4073;42.626;25.386;2024-02-28T09:51:56;97832.25;;;23.50;47.39
8061;BME280;4073;42.626;25.386;2024-02-28T09:54:23;97834.06;;;23.58;46.34
8061;BME280;4073;42.626;25.386;2024-02-28T09:56:49;97829.75;;;23.57;45.35
8061;BME280;4073;42.626;25.386;2024-02-28T09:59:15;97826.69;;;23.46;45.57
8061;BME280;4073;42.626;25.386;2024-02-28T10:01:44;97826.53;;;23.31;44.12
8061;BME280;4073;42.626;25.386;2024-02-28T10:04:13;97822.38;;;23.13;45.43
8061;BME280;4073;42.626;25.386;2024-02-28T10:06:41;97814.09;;;23.21;46.58
8061;BME280;4073;42.626;25.386;2024-02-28T10:09:07;97819.72;;;23.37;46.51
8061;BME280;4073;42.626;25.386;2024-02-28T10:11:34;97809.03;;;23.44;45.83
8061;BME280;4073;42.626;25.386;2024-02-28T10:14:03;97811.31;;;23.30;46.39
8061;BME280;4073;42.626;25.386;2024-02-28T10:16:29;97801.06;;;23.27;46.16
8061;BME280;4073;42.626;25.386;2024-02-28T10:18:54;97806.72;;;23.22;46.63
8061;BME280;4073;42.626;25.386;2024-02-28T10:21:20;97795.09;;;23.13;47.22
8061;BME280;4073;42.626;25.386;2024-02-28T10:23:45;97791.91;;;23.11;47.39
8061;BME280;4073;42.626;25.386;2024-02-28T10:26:12;97789.03;;;22.95;47.75
8061;BME280;4073;42.626;25.386;2024-02-28T10:28:38;97790.06;;;22.70;48.64
8061;BME280;4073;42.626;25.386;2024-02-28T10:31:06;97785.91;;;22.52;48.86
8061;BME280;4073;42.626;25.386;2024-02-28T10:33:32;97776.16;;;22.51;49.07
8061;BME280;4073;42.626;25.386;2024-02-28T10:35:59;97771.00;;;22.29;48.99
8061;BME280;4073;42.626;25.386;2024-02-28T10:38:26;97778.16;;;22.33;49.46
8061;BME280;4073;42.626;25.386;2024-02-28T10:40:53;97767.47;;;22.28;49.11
8061;BME280;4073;42.626;25.386;2024-02-28T10:43:19;97766.22;;;22.46;48.50
8061;BME280;4073;42.626;25.386;2024-02-28T10:45:45;97764.88;;;22.73;47.72
8061;BME280;4073;42.626;25.386;2024-02-28T10:48:14;97769.00;;;22.91;46.86
8061;BME280;4073;42.626;25.386;2024-02-28T10:50:39;97764.59;;;22.99;46.96
8061;BME280;4073;42.626;25.386;2024-02-28T10:53:13;97760.03;;;23.35;45.14
8061;BME280;4073;42.626;25.386;2024-02-28T10:55:42;97750.06;;;23.63;44.88
8061;BME280;4073;42.626;25.386;2024-02-28T10:58:11;97728.41;;;24.06;43.39
8061;BME280;4073;42.626;25.386;2024-02-28T11:00:39;97739.94;;;24.39;42.37
8061;BME280;4073;42.626;25.386;2024-02-28T11:03:07;97715.97;;;24.76;41.46
8061;BME280;4073;42.626;25.386;2024-02-28T11:05:41;97715.19;;;24.75;40.83
8061;BME280;4073;42.626;25.386;2024-02-28T11:08:10;97728.66;;;25.27;39.75
8061;BME280;4073;42.626;25.386;2024-02-28T11:10:40;97725.56;;;25.13;39.82
8061;BME280;4073;42.626;25.386;2024-02-28T11:13:07;97715.44;;;24.70;40.48
8061;BME280;4073;42.626;25.386;2024-02-28T11:15:33;97713.50;;;24.71;40.82
8061;BME280;4073;42.626;25.386;2024-02-28T11:18:09;97714.06;;;24.76;40.70
8061;BME280;4073;42.626;25.386;2024-02-28T11:20:35;97707.78;;;24.09;41.69
8061;BME280;4073;42.626;25.386;2024-02-28T11:23:00;97710.47;;;23.45;43.78
8061;BME280;4073;42.626;25.386;2024-02-28T11:25:26;97696.84;;;22.77;46.64
8061;BME280;4073;42.626;25.386;2024-02-28T11:27:52;97698.75;;;22.43;47.95
8061;BME280;4073;42.626;25.386;2024-02-28T11:30:17;97680.97;;;21.84;49.43
8061;BME280;4073;42.626;25.386;2024-02-28T11:32:43;97686.09;;;21.86;50.70
8061;BME280;4073;42.626;25.386;2024-02-28T11:35:10;97670.25;;;21.88;49.63
8061;BME280;4073;42.626;25.386;2024-02-28T11:37:38;97681.22;;;21.71;50.79
8061;BME280;4073;42.626;25.386;2024-02-28T11:40:09;97684.50;;;21.85;50.11
8061;BME280;4073;42.626;25.386;2024-02-28T11:42:35;97674.03;;;21.95;50.27
8061;BME280;4073;42.626;25.386;2024-02-28T11:45:00;97673.44;;;21.90;50.38
8061;BME280;4073;42.626;25.386;2024-02-28T11:47:33;97668.31;;;21.88;49.78
8061;BME280;4073;42.626;25.386;2024-02-28T11:50:01;97677.75;;;21.91;49.65
8061;BME280;4073;42.626;25.386;2024-02-28T11:52:27;97658.69;;;21.91;49.65
8061;BME280;4073;42.626;25.386;2024-02-28T11:54:53;97660.34;;;21.83;49.47
8061;BME280;4073;42.626;25.386;2024-02-28T11:57:19;97663.41;;;21.82;50.27
8061;BME280;4073;42.626;25.386;2024-02-28T11:59:45;97646.19;;;21.69;50.79
8061;BME280;4073;42.626;25.386;2024-02-28T12:02:12;97653.09;;;21.87;49.72
8061;BME280;4073;42.626;25.386;2024-02-28T12:04:39;97654.56;;;21.85;49.55
8061;BME280;4073;42.626;25.386;2024-02-28T12:07:05;97648.31;;;21.84;49.94
8061;BME280;4073;42.626;25.386;2024-02-28T12:09:31;97633.38;;;21.70;49.41
8061;BME280;4073;42.626;25.386;2024-02-28T12:12:00;97636.66;;;21.84;49.82
8061;BME280;4073;42.626;25.386;2024-02-28T12:14:26;97639.56;;;21.99;48.69
8061;BME280;4073;42.626;25.386;2024-02-28T12:16:52;97637.56;;;22.08;48.35
8061;BME280;4073;42.626;25.386;2024-02-28T12:19:17;97628.47;;;22.04;48.67
8061;BME280;4073;42.626;25.386;2024-02-28T12:21:45;97630.63;;;21.78;48.87
8061;BME280;4073;42.626;25.386;2024-02-28T12:24:11;97618.00;;;21.74;49.71
8061;BME280;4073;42.626;25.386;2024-02-28T12:26:37;97623.91;;;21.76;49.12
8061;BME280;4073;42.626;25.386;2024-02-28T12:29:03;97613.34;;;21.74;49.26
8061;BME280;4073;42.626;25.386;2024-02-28T12:31:29;97617.59;;;21.84;48.66
8061;BME280;4073;42.626;25.386;2024-02-28T12:33:55;97615.41;;;21.77;48.87
8061;BME280;4073;42.626;25.386;2024-02-28T12:36:20;97609.94;;;21.98;48.47
8061;BME280;4073;42.626;25.386;2024-02-28T12:38:46;97615.19;;;22.03;47.64
8061;BME280;4073;42.626;25.386;2024-02-28T12:41:12;97613.25;;;21.83;48.28
8061;BME280;4073;42.626;25.386;2024-02-28T12:43:38;97597.19;;;21.49;49.65
8061;BME280;4073;42.626;25.386;2024-02-28T12:46:07;97610.19;;;21.43;49.83
8061;BME280;4073;42.626;25.386;2024-02-28T12:48:39;97602.22;;;21.38;50.18
8061;BME280;4073;42.626;25.386;2024-02-28T12:51:06;97606.16;;;21.29;49.79
8061;BME280;4073;42.626;25.386;2024-02-28T12:53:32;97586.59;;;21.06;48.89
8061;BME280;4073;42.626;25.386;2024-02-28T12:55:57;97602.78;;;21.03;48.54
8061;BME280;4073;42.626;25.386;2024-02-28T12:58:23;97598.50;;;21.22;47.92
8061;BME280;4073;42.626;25.386;2024-02-28T13:00:49;97600.81;;;21.32;48.41
8061;BME280;4073;42.626;25.386;2024-02-28T13:03:15;97601.09;;;21.39;48.78
8061;BME280;4073;42.626;25.386;2024-02-28T13:05:41;97598.72;;;21.38;48.33